createdAt,value
2018-06-13T00:01:43.021Z,17.31
2018-06-13T00:04:12.279Z,17.23
2018-06-13T00:06:41.425Z,17.27
2018-06-13T00:09:10.682Z,17.33
2018-06-13T00:11:39.954Z,17.43
2018-06-13T00:14:09.248Z,17.48
2018-06-13T00:16:38.450Z,17.38
2018-06-13T00:19:07.643Z,17.14
2018-06-13T00:21:36.766Z,17.11
2018-06-13T00:24:06.656Z,17.08
2018-06-13T00:26:35.788Z,17.16
2018-06-13T00:29:05.852Z,17.14
2018-06-13T00:31:34.982Z,17.23
2018-06-13T00:34:04.182Z,17.24
2018-06-13T00:36:33.390Z,17.17
2018-06-13T00:39:02.538Z,13.87
2018-06-13T00:41:31.692Z,17.24
2018-06-13T00:44:00.819Z,17.19
2018-06-13T00:46:30.064Z,17.06
2018-06-13T00:48:59.165Z,17.06
2018-06-13T00:51:28.283Z,17.16
2018-06-13T00:53:57.405Z,17.12
2018-06-13T00:56:31.012Z,17.07
2018-06-13T00:59:00.161Z,16.95
2018-06-13T01:01:30.097Z,16.91
2018-06-13T01:03:59.322Z,16.96
2018-06-13T01:06:28.547Z,17.01
2018-06-13T01:08:57.673Z,17.08
2018-06-13T01:11:26.899Z,17.04
2018-06-13T01:13:56.057Z,16.94
2018-06-13T01:16:25.234Z,16.90
2018-06-13T01:18:54.653Z,16.92
2018-06-13T01:21:23.945Z,16.83
2018-06-13T01:23:53.097Z,16.75
2018-06-13T01:26:22.254Z,16.71
2018-06-13T01:28:51.389Z,16.72
2018-06-13T01:31:20.524Z,16.85
2018-06-13T01:33:50.243Z,16.76
2018-06-13T01:36:23.898Z,16.72
2018-06-13T01:38:53.013Z,16.76
2018-06-13T01:41:22.138Z,16.74
2018-06-13T01:43:51.245Z,16.60
2018-06-13T01:46:20.390Z,16.59
2018-06-13T01:48:49.585Z,16.56
2018-06-13T01:51:18.717Z,16.48
2018-06-13T01:53:47.891Z,16.54
2018-06-13T01:56:17.034Z,16.55
2018-06-13T01:58:46.306Z,16.59
2018-06-13T02:01:15.412Z,16.56
2018-06-13T02:03:44.605Z,16.47
2018-06-13T02:06:14.098Z,16.51
2018-06-13T02:08:43.226Z,16.36
2018-06-13T02:11:12.392Z,16.29
2018-06-13T02:13:41.706Z,16.29
2018-06-13T02:16:10.887Z,16.32
2018-06-13T02:18:40.261Z,16.32
2018-06-13T02:21:09.530Z,16.37
2018-06-13T02:23:39.118Z,16.42
2018-06-13T02:26:08.298Z,16.49
2018-06-13T02:28:37.494Z,16.50
2018-06-13T02:31:07.082Z,16.46
2018-06-13T02:33:36.239Z,16.39
2018-06-13T02:36:05.893Z,16.50
2018-06-13T02:38:35.019Z,16.49
2018-06-13T02:41:04.193Z,16.37
2018-06-13T02:43:33.415Z,16.54
2018-06-13T02:46:02.564Z,16.55
2018-06-13T02:48:31.698Z,16.58
2018-06-13T02:51:00.894Z,16.43
2018-06-13T02:53:30.110Z,16.45
2018-06-13T02:55:59.284Z,16.47
2018-06-13T02:58:28.457Z,15.64
2018-06-13T03:00:57.709Z,16.53
2018-06-13T03:03:26.896Z,16.39
2018-06-13T03:05:56.049Z,16.31
2018-06-13T03:08:25.198Z,16.35
2018-06-13T03:10:54.342Z,16.54
2018-06-13T03:13:23.540Z,16.38
2018-06-13T03:15:52.738Z,16.25
2018-06-13T03:18:21.905Z,16.28
2018-06-13T03:20:51.100Z,16.33
2018-06-13T03:23:21.002Z,16.32
2018-06-13T03:25:50.304Z,16.35
2018-06-13T03:28:19.478Z,16.34
2018-06-13T03:30:48.773Z,16.33
2018-06-13T03:33:17.918Z,16.29
2018-06-13T03:35:47.071Z,16.26
2018-06-13T03:38:16.291Z,16.25
2018-06-13T03:40:45.450Z,16.33
2018-06-13T03:43:14.557Z,16.25
2018-06-13T03:45:43.758Z,16.35
2018-06-13T03:48:13.357Z,16.28
2018-06-13T03:50:42.457Z,16.17
2018-06-13T03:53:11.642Z,16.14
2018-06-13T03:55:40.876Z,16.08
2018-06-13T03:58:10.052Z,15.67
2018-06-13T04:00:40.489Z,16.21
2018-06-13T04:03:10.708Z,16.19
2018-06-13T04:05:39.926Z,16.14
2018-06-13T04:08:09.164Z,16.26
2018-06-13T04:10:38.487Z,16.29
2018-06-13T04:13:08.583Z,16.18
2018-06-13T04:15:37.738Z,16.04
2018-06-13T04:18:06.903Z,15.96
2018-06-13T04:20:36.951Z,15.91
2018-06-13T04:23:08.579Z,15.91
2018-06-13T04:25:39.855Z,16.02
2018-06-13T04:28:13.054Z,16.03
2018-06-13T04:30:49.583Z,16.09
2018-06-13T04:33:22.415Z,16.13
2018-06-13T04:35:57.214Z,15.98
2018-06-13T04:38:28.503Z,15.98
2018-06-13T04:41:00.970Z,16.13
2018-06-13T04:43:33.105Z,16.24
2018-06-13T04:46:02.506Z,16.14
2018-06-13T04:48:31.791Z,16.01
2018-06-13T04:51:01.071Z,16.01
2018-06-13T04:53:30.508Z,16.03
2018-06-13T04:55:59.696Z,16.28
2018-06-13T04:58:28.935Z,16.32
2018-06-13T05:00:58.234Z,16.27
2018-06-13T05:03:27.589Z,16.47
2018-06-13T05:05:56.764Z,16.46
2018-06-13T05:08:26.062Z,16.55
2018-06-13T05:10:55.358Z,16.70
2018-06-13T05:13:24.809Z,15.38
2018-06-13T05:15:54.072Z,16.38
2018-06-13T05:18:23.519Z,16.49
2018-06-13T05:20:53.465Z,16.38
2018-06-13T05:23:23.559Z,16.31
2018-06-13T05:25:53.036Z,16.43
2018-06-13T05:28:22.956Z,16.53
2018-06-13T05:30:52.301Z,16.51
2018-06-13T05:33:21.641Z,16.40
2018-06-13T05:35:50.977Z,16.54
2018-06-13T05:38:20.701Z,16.77
2018-06-13T05:40:49.892Z,16.82
2018-06-13T05:43:19.164Z,16.77
2018-06-13T05:45:48.451Z,16.76
2018-06-13T05:48:17.744Z,16.89
2018-06-13T05:50:46.964Z,16.75
2018-06-13T05:53:16.147Z,16.78
2018-06-13T05:55:45.617Z,16.89
2018-06-13T05:58:14.855Z,16.90
2018-06-13T06:00:44.279Z,16.99
2018-06-13T06:03:13.658Z,17.08
2018-06-13T06:05:43.885Z,17.09
2018-06-13T06:08:13.959Z,17.15
2018-06-13T06:10:43.757Z,17.05
2018-06-13T06:13:13.255Z,17.07
2018-06-13T06:15:42.555Z,17.22
2018-06-13T06:18:11.839Z,17.31
2018-06-13T06:20:41.860Z,17.24
2018-06-13T06:23:11.103Z,17.32
2018-06-13T06:25:41.179Z,17.32
2018-06-13T06:28:10.456Z,17.30
2018-06-13T06:30:39.622Z,17.05
2018-06-13T06:33:09.616Z,16.98
2018-06-13T06:35:38.781Z,17.12
2018-06-13T06:38:08.333Z,17.22
2018-06-13T06:40:38.136Z,17.34
2018-06-13T06:43:07.324Z,17.53
2018-06-13T06:45:36.496Z,17.50
2018-06-13T06:48:06.552Z,17.41
2018-06-13T06:50:36.130Z,17.56
2018-06-13T06:53:05.796Z,17.51
2018-06-13T06:55:35.085Z,17.72
2018-06-13T06:58:06.203Z,17.74
2018-06-13T07:00:36.023Z,17.78
2018-06-13T07:03:06.314Z,17.81
2018-06-13T07:05:35.992Z,17.87
2018-06-13T07:08:06.834Z,18.02
2018-06-13T07:10:37.582Z,18.07
2018-06-13T07:13:07.112Z,17.96
2018-06-13T07:15:36.360Z,17.68
2018-06-13T07:18:07.229Z,17.77
2018-06-13T07:20:40.511Z,17.69
2018-06-13T07:23:10.767Z,17.69
2018-06-13T07:25:40.010Z,17.75
2018-06-13T07:28:10.470Z,17.52
2018-06-13T07:30:39.907Z,17.52
2018-06-13T07:33:09.769Z,17.34
2018-06-13T07:35:42.502Z,17.40
2018-06-13T07:38:14.464Z,17.12
2018-06-13T07:40:44.457Z,17.14
2018-06-13T07:43:14.488Z,16.92
2018-06-13T07:45:43.849Z,16.94
2018-06-13T07:48:13.293Z,17.15
2018-06-13T07:50:42.538Z,17.12
2018-06-13T07:53:12.237Z,17.22
2018-06-13T07:55:41.711Z,17.52
2018-06-13T07:58:11.107Z,17.41
2018-06-13T08:00:40.869Z,17.49
2018-06-13T08:03:10.426Z,17.71
2018-06-13T08:05:39.908Z,17.90
2018-06-13T08:08:09.276Z,17.92
2018-06-13T08:10:41.325Z,17.75
2018-06-13T08:13:11.676Z,17.92
2018-06-13T08:15:41.965Z,18.20
2018-06-13T08:18:12.069Z,18.22
2018-06-13T08:20:42.615Z,18.43
2018-06-13T08:23:13.005Z,18.55
2018-06-13T08:25:44.130Z,18.73
2018-06-13T08:28:13.842Z,18.99
2018-06-13T08:30:44.784Z,18.82
2018-06-13T08:33:23.952Z,18.85
2018-06-13T08:35:59.115Z,18.75
2018-06-13T08:38:29.673Z,18.56
2018-06-13T08:41:00.529Z,18.54
2018-06-13T08:43:32.382Z,18.11
2018-06-13T08:46:02.177Z,17.96
2018-06-13T08:48:34.619Z,17.87
2018-06-13T08:51:06.110Z,18.09
2018-06-13T08:53:36.559Z,18.19
2018-06-13T08:56:10.137Z,18.45
2018-06-13T08:58:39.691Z,18.12
2018-06-13T09:01:13.589Z,18.07
2018-06-13T09:03:43.670Z,18.29
2018-06-13T09:06:13.880Z,18.08
2018-06-13T09:08:43.888Z,17.86
2018-06-13T09:11:13.483Z,17.76
2018-06-13T09:13:43.335Z,17.70
2018-06-13T09:16:12.957Z,17.53
2018-06-13T09:18:42.241Z,17.46
2018-06-13T09:21:11.628Z,17.43
2018-06-13T09:23:41.242Z,17.48
2018-06-13T09:26:10.569Z,17.38
2018-06-13T09:28:39.886Z,17.48
2018-06-13T09:31:09.131Z,17.54
2018-06-13T09:33:38.440Z,17.48
2018-06-13T09:36:07.843Z,17.43
2018-06-13T09:38:37.339Z,17.51
2018-06-13T09:41:06.816Z,17.59
2018-06-13T09:43:36.115Z,17.64
2018-06-13T09:46:12.012Z,17.59
2018-06-13T09:48:36.008Z,17.64
2018-06-13T09:51:06.030Z,17.88
2018-06-13T09:53:36.159Z,17.87
2018-06-13T09:56:06.445Z,17.92
2018-06-13T09:58:41.133Z,17.87
2018-06-13T10:01:15.596Z,18.17
2018-06-13T10:03:45.009Z,18.01
2018-06-13T10:06:14.303Z,17.83
2018-06-13T10:08:43.865Z,17.92
2018-06-13T10:11:13.238Z,17.94
2018-06-13T10:13:42.610Z,17.83
2018-06-13T10:16:12.136Z,17.83
2018-06-13T10:18:42.450Z,17.85
2018-06-13T10:21:11.851Z,17.91
2018-06-13T10:23:41.445Z,18.06
2018-06-13T10:26:11.418Z,18.17
2018-06-13T10:28:40.645Z,18.47
2018-06-13T10:31:09.974Z,18.44
2018-06-13T10:33:39.350Z,18.67
2018-06-13T10:36:09.280Z,18.57
2018-06-13T10:38:38.468Z,18.77
2018-06-13T10:41:07.733Z,18.68
2018-06-13T10:43:37.689Z,18.82
2018-06-13T10:46:07.496Z,18.85
2018-06-13T10:48:36.993Z,18.19
2018-06-13T10:51:06.447Z,18.75
2018-06-13T10:53:35.719Z,18.75
2018-06-13T10:56:05.879Z,18.49
2018-06-13T10:58:35.253Z,18.39
2018-06-13T11:01:04.425Z,18.19
2018-06-13T11:03:33.735Z,18.39
2018-06-13T11:06:03.005Z,18.24
2018-06-13T11:08:32.339Z,18.22
2018-06-13T11:11:02.087Z,18.02
2018-06-13T11:13:31.478Z,18.00
2018-06-13T11:16:01.971Z,18.01
2018-06-13T11:18:31.243Z,17.63
2018-06-13T11:21:02.438Z,17.89
2018-06-13T11:23:32.121Z,17.79
2018-06-13T11:26:04.232Z,17.56
2018-06-13T11:28:36.518Z,17.56
2018-06-13T11:31:06.024Z,17.67
2018-06-13T11:33:35.498Z,17.63
2018-06-13T11:36:05.287Z,17.57
2018-06-13T11:38:37.601Z,17.44
2018-06-13T11:41:09.842Z,17.70
2018-06-13T11:43:40.148Z,17.81
2018-06-13T11:46:12.351Z,17.99
2018-06-13T11:48:45.089Z,17.91
2018-06-13T11:51:17.936Z,17.81
2018-06-13T11:53:47.281Z,17.79
2018-06-13T11:56:17.113Z,18.06
2018-06-13T11:58:47.727Z,18.00
2018-06-13T12:01:18.459Z,18.13
2018-06-13T12:03:47.883Z,18.31
2018-06-13T12:06:17.173Z,18.71
2018-06-13T12:08:47.857Z,18.78
2018-06-13T12:11:17.598Z,18.76
2018-06-13T12:13:48.873Z,19.03
2018-06-13T12:16:19.731Z,19.01
2018-06-13T12:18:51.839Z,18.97
2018-06-13T12:21:21.668Z,19.08
2018-06-13T12:23:52.182Z,19.18
2018-06-13T12:26:21.527Z,19.05
2018-06-13T12:28:50.989Z,18.83
2018-06-13T12:31:25.077Z,18.64
2018-06-13T12:33:57.092Z,18.75
2018-06-13T12:36:29.352Z,18.80
2018-06-13T12:39:02.018Z,18.86
2018-06-13T12:41:32.047Z,19.08
2018-06-13T12:44:01.703Z,19.34
2018-06-13T12:46:31.262Z,19.50
2018-06-13T12:49:00.901Z,19.55
2018-06-13T12:51:31.481Z,19.68
2018-06-13T12:54:04.151Z,19.32
2018-06-13T12:56:36.053Z,19.32
2018-06-13T12:59:07.242Z,19.26
2018-06-13T13:01:39.640Z,19.43
2018-06-13T13:04:11.054Z,19.23
2018-06-13T13:06:44.027Z,19.17
2018-06-13T13:09:17.612Z,19.29
2018-06-13T13:11:49.511Z,19.60
2018-06-13T13:14:21.617Z,19.58
2018-06-13T13:16:54.238Z,19.73
2018-06-13T13:19:26.135Z,19.58
2018-06-13T13:21:57.712Z,19.46
2018-06-13T13:24:28.263Z,19.37
2018-06-13T13:27:05.123Z,19.01
2018-06-13T13:29:39.056Z,19.12
2018-06-13T13:32:08.805Z,18.97
2018-06-13T13:34:38.186Z,18.95
2018-06-13T13:37:09.384Z,18.77
2018-06-13T13:39:38.683Z,18.74
2018-06-13T13:42:08.083Z,18.78
2018-06-13T13:44:37.349Z,18.89
2018-06-13T13:47:07.515Z,19.09
2018-06-13T13:49:36.897Z,19.23
2018-06-13T13:52:06.750Z,19.64
2018-06-13T13:54:36.085Z,19.82
2018-06-13T13:57:06.100Z,19.84
2018-06-13T13:59:35.646Z,19.97
2018-06-13T14:02:04.860Z,20.13
2018-06-13T14:04:34.134Z,19.96
2018-06-13T14:07:03.470Z,19.74
2018-06-13T14:09:32.635Z,19.28
2018-06-13T14:12:01.861Z,19.10
2018-06-13T14:14:31.451Z,19.00
2018-06-13T14:17:00.825Z,18.93
2018-06-13T14:19:30.273Z,18.99
2018-06-13T14:21:59.968Z,19.11
2018-06-13T14:24:29.268Z,18.95
2018-06-13T14:26:58.874Z,18.81
2018-06-13T14:29:29.296Z,18.73
2018-06-13T14:31:59.659Z,18.64
2018-06-13T14:34:31.954Z,18.66
2018-06-13T14:37:01.619Z,18.55
2018-06-13T14:39:32.148Z,18.64
2018-06-13T14:42:01.499Z,18.66
2018-06-13T14:44:31.984Z,18.63
2018-06-13T14:47:01.883Z,18.64
2018-06-13T14:49:31.520Z,18.77
2018-06-13T14:52:00.932Z,18.96
2018-06-13T14:54:30.158Z,19.13
2018-06-13T14:56:59.865Z,19.01
2018-06-13T14:59:29.181Z,19.01
2018-06-13T15:01:58.613Z,19.06
2018-06-13T15:04:35.198Z,18.96
2018-06-13T15:07:07.525Z,19.20
2018-06-13T15:09:37.871Z,19.24
2018-06-13T15:12:07.282Z,19.38
2018-06-13T15:14:36.715Z,19.27
2018-06-13T15:17:05.877Z,19.21
2018-06-13T15:19:35.274Z,19.12
2018-06-13T15:22:04.381Z,19.31
2018-06-13T15:24:33.933Z,19.25
2018-06-13T15:27:03.262Z,19.24
2018-06-13T15:29:32.441Z,19.42
2018-06-13T15:32:01.681Z,19.29
2018-06-13T15:34:32.140Z,19.17
2018-06-13T15:37:02.181Z,18.98
2018-06-13T15:39:33.541Z,18.78
2018-06-13T15:42:03.353Z,18.89
2018-06-13T15:44:32.738Z,19.02
2018-06-13T15:47:01.892Z,19.26
2018-06-13T15:49:31.021Z,19.39
2018-06-13T15:52:01.595Z,19.66
2018-06-13T15:54:31.000Z,19.27
2018-06-13T15:57:00.605Z,19.44
2018-06-13T15:59:29.991Z,19.51
2018-06-13T16:01:59.178Z,19.64
2018-06-13T16:04:28.388Z,19.28
2018-06-13T16:06:57.621Z,19.00
2018-06-13T16:09:26.915Z,19.00
2018-06-13T16:11:56.016Z,18.76
2018-06-13T16:14:25.166Z,18.76
2018-06-13T16:16:54.349Z,18.86
2018-06-13T16:19:23.602Z,18.95
2018-06-13T16:21:53.094Z,18.90
2018-06-13T16:24:22.461Z,18.89
2018-06-13T16:26:51.768Z,18.85
2018-06-13T16:29:21.289Z,18.74
2018-06-13T16:31:50.778Z,18.76
2018-06-13T16:34:21.479Z,18.89
2018-06-13T16:36:50.813Z,19.08
2018-06-13T16:39:20.562Z,18.94
2018-06-13T16:41:49.987Z,19.06
2018-06-13T16:44:19.232Z,18.97
2018-06-13T16:46:51.781Z,18.89
2018-06-13T16:49:21.307Z,18.81
2018-06-13T16:51:53.016Z,18.64
2018-06-13T16:54:33.653Z,18.75
2018-06-13T16:57:02.771Z,18.76
2018-06-13T16:59:32.064Z,18.59
2018-06-13T17:02:01.188Z,18.41
2018-06-13T17:04:30.333Z,18.62
2018-06-13T17:06:59.478Z,18.65
2018-06-13T17:09:28.609Z,18.57
2018-06-13T17:11:57.812Z,18.65
2018-06-13T17:14:27.285Z,18.81
2018-06-13T17:16:57.021Z,18.81
2018-06-13T17:19:26.676Z,18.93
2018-06-13T17:21:55.921Z,19.01
2018-06-13T17:24:25.039Z,19.05
2018-06-13T17:26:54.327Z,18.88
2018-06-13T17:29:23.525Z,18.81
2018-06-13T17:31:53.385Z,18.83
2018-06-13T17:34:22.746Z,18.69
2018-06-13T17:36:52.069Z,18.59
2018-06-13T17:39:21.337Z,18.57
2018-06-13T17:41:50.501Z,18.48
2018-06-13T17:44:19.747Z,18.47
2018-06-13T17:46:48.964Z,18.45
2018-06-13T17:49:18.182Z,18.46
2018-06-13T17:51:47.333Z,18.71
2018-06-13T17:54:16.423Z,18.68
2018-06-13T17:56:45.539Z,18.65
2018-06-13T17:59:14.721Z,18.56
2018-06-13T18:01:44.048Z,18.40
2018-06-13T18:04:13.350Z,18.42
2018-06-13T18:06:42.726Z,18.33
2018-06-13T18:09:12.126Z,18.37
2018-06-13T18:11:41.455Z,18.48
2018-06-13T18:14:10.521Z,18.44
2018-06-13T18:16:39.726Z,18.21
2018-06-13T18:19:08.923Z,18.11
2018-06-13T18:21:38.082Z,18.07
2018-06-13T18:24:07.341Z,18.04
2018-06-13T18:26:37.003Z,17.97
2018-06-13T18:29:06.287Z,18.02
2018-06-13T18:31:35.450Z,18.09
2018-06-13T18:34:05.804Z,18.10
2018-06-13T18:36:35.048Z,18.14
2018-06-13T18:39:06.150Z,18.07
2018-06-13T18:41:35.340Z,18.04
2018-06-13T18:44:04.622Z,18.04
2018-06-13T18:46:34.009Z,18.12
2018-06-13T18:49:03.206Z,18.07
2018-06-13T18:51:32.405Z,18.10
2018-06-13T18:54:01.824Z,18.29
2018-06-13T18:56:31.052Z,18.15
2018-06-13T18:59:00.415Z,18.33
2018-06-13T19:01:29.646Z,18.17
2018-06-13T19:03:58.918Z,18.06
2018-06-13T19:06:28.055Z,17.87
2018-06-13T19:08:57.258Z,17.92
2018-06-13T19:11:26.488Z,17.95
2018-06-13T19:13:57.857Z,17.91
2018-06-13T19:16:27.371Z,17.84
2018-06-13T19:18:56.654Z,17.80
2018-06-13T19:21:25.860Z,17.71
2018-06-13T19:23:55.082Z,17.72
2018-06-13T19:26:24.207Z,17.73
2018-06-13T19:28:53.434Z,17.67
2018-06-13T19:31:22.601Z,17.71
2018-06-13T19:33:52.068Z,17.66
2018-06-13T19:36:21.637Z,17.58
2018-06-13T19:38:50.752Z,17.81
2018-06-13T19:41:20.010Z,17.69
2018-06-13T19:43:49.276Z,17.83
2018-06-13T19:46:18.551Z,17.81
2018-06-13T19:48:49.610Z,17.69
2018-06-13T19:51:18.819Z,17.68
2018-06-13T19:55:58.803Z,17.85
2018-06-13T19:58:27.999Z,17.60
2018-06-13T20:00:57.457Z,17.68
2018-06-13T20:03:31.770Z,17.80
2018-06-13T20:06:00.953Z,17.81
2018-06-13T20:08:30.197Z,17.83
2018-06-13T20:10:59.597Z,17.78
2018-06-13T20:13:34.265Z,17.91
2018-06-13T20:16:08.525Z,17.83
2018-06-13T20:18:43.155Z,17.80
2018-06-13T20:21:12.777Z,17.72
2018-06-13T20:23:43.022Z,17.87
2018-06-13T20:26:18.022Z,17.92
2018-06-13T20:28:52.475Z,17.63
2018-06-13T20:31:28.303Z,17.62
2018-06-13T20:33:57.573Z,17.60
2018-06-13T20:36:26.923Z,17.53
2018-06-13T20:38:56.139Z,17.54
2018-06-13T20:41:26.016Z,17.37
2018-06-13T20:43:55.345Z,17.39
2018-06-13T20:46:24.937Z,17.37
2018-06-13T20:48:54.421Z,17.52
2018-06-13T20:51:23.770Z,17.68
2018-06-13T20:53:53.219Z,17.79
2018-06-13T20:56:22.411Z,17.81
2018-06-13T20:58:51.606Z,17.75
2018-06-13T21:01:20.872Z,17.73
2018-06-13T21:03:50.292Z,17.68
2018-06-13T21:06:19.505Z,17.63
2018-06-13T21:08:48.706Z,17.62
2018-06-13T21:11:18.130Z,17.63
2018-06-13T21:13:47.317Z,17.68
2018-06-13T21:16:16.938Z,17.57
2018-06-13T21:18:46.142Z,17.71
2018-06-13T21:21:16.065Z,17.72
2018-06-13T21:23:46.934Z,17.68
2018-06-13T21:26:16.081Z,17.64
2018-06-13T21:28:45.286Z,17.60
2018-06-13T21:31:14.440Z,17.54
2018-06-13T21:33:43.563Z,17.56
2018-06-13T21:36:12.665Z,17.59
2018-06-13T21:38:41.965Z,17.56
2018-06-13T21:41:11.050Z,17.62
2018-06-13T21:43:40.631Z,17.63
2018-06-13T21:46:09.821Z,17.65
2018-06-13T21:48:39.106Z,17.50
2018-06-13T21:51:08.234Z,17.50
2018-06-13T21:53:37.691Z,17.48
2018-06-13T21:56:07.378Z,17.50
2018-06-13T21:58:36.730Z,17.54
2018-06-13T22:01:06.857Z,17.62
2018-06-13T22:03:36.043Z,17.55
2018-06-13T22:06:05.209Z,17.45
2018-06-13T22:08:34.339Z,17.41
2018-06-13T22:11:03.501Z,17.38
2018-06-13T22:13:32.723Z,17.33
2018-06-13T22:16:01.795Z,17.26
2018-06-13T22:18:30.977Z,17.13
2018-06-13T22:21:00.128Z,17.19
2018-06-13T22:23:29.361Z,17.21
2018-06-13T22:25:58.481Z,17.28
2018-06-13T22:28:27.594Z,17.33
2018-06-13T22:30:56.817Z,17.31
2018-06-13T22:33:25.989Z,17.29
2018-06-13T22:35:55.260Z,17.25
2018-06-13T22:38:24.374Z,17.21
2018-06-13T22:40:53.591Z,17.18
2018-06-13T22:43:23.144Z,17.12
2018-06-13T22:45:52.277Z,17.18
2018-06-13T22:48:21.419Z,17.22
2018-06-13T22:50:51.073Z,17.25
2018-06-13T22:53:20.343Z,17.19
2018-06-13T22:55:49.464Z,17.18
2018-06-13T22:58:18.671Z,17.18
2018-06-13T23:01:07.814Z,17.16
2018-06-13T23:03:37.470Z,17.09
2018-06-13T23:06:09.714Z,17.03
2018-06-13T23:08:39.241Z,17.09
2018-06-13T23:11:08.628Z,17.03
2018-06-13T23:13:37.825Z,16.99
2018-06-13T23:16:07.116Z,16.98
2018-06-13T23:18:36.294Z,17.03
2018-06-13T23:21:05.932Z,17.08
2018-06-13T23:23:35.198Z,17.09
2018-06-13T23:26:04.474Z,17.13
2018-06-13T23:28:34.147Z,17.04
2018-06-13T23:31:03.402Z,17.02
2018-06-13T23:33:32.660Z,17.01
2018-06-13T23:36:01.929Z,17.11
2018-06-13T23:38:31.150Z,17.15
2018-06-13T23:41:00.335Z,17.09
2018-06-13T23:43:29.471Z,17.01
2018-06-13T23:45:58.622Z,16.98
2018-06-13T23:48:27.790Z,16.82
2018-06-13T23:50:57.246Z,16.83
2018-06-13T23:53:26.615Z,16.88
2018-06-13T23:55:55.979Z,16.95
2018-06-13T23:58:25.128Z,17.00
